createdAt,value
2018-02-15T00:00:39.077Z,-3.00
2018-02-15T00:03:07.484Z,-3.00
2018-02-15T00:05:35.904Z,-3.10
2018-02-15T00:08:04.739Z,-3.10
2018-02-15T00:10:33.154Z,-3.10
2018-02-15T00:13:01.583Z,-3.10
2018-02-15T00:15:29.996Z,-3.10
2018-02-15T00:17:59.920Z,-3.10
2018-02-15T00:20:29.042Z,-3.10
2018-02-15T00:22:58.764Z,-3.10
2018-02-15T00:25:28.533Z,-3.10
2018-02-15T00:27:57.621Z,-3.10
2018-02-15T00:30:26.039Z,-3.10
2018-02-15T00:32:55.217Z,-3.10
2018-02-15T00:35:23.632Z,-3.10
2018-02-15T00:37:52.040Z,-3.10
2018-02-15T00:40:20.446Z,-3.10
2018-02-15T00:42:48.861Z,-3.10
2018-02-15T00:45:17.266Z,-3.10
2018-02-15T00:47:45.673Z,-3.10
2018-02-15T00:50:14.079Z,-3.20
2018-02-15T00:52:43.241Z,-3.20
2018-02-15T00:55:11.656Z,-3.20
2018-02-15T00:57:40.824Z,-3.20
2018-02-15T01:00:09.269Z,-3.20
2018-02-15T01:02:37.684Z,-4.80
2018-02-15T01:05:06.097Z,-3.20
2018-02-15T01:07:34.526Z,-3.30
2018-02-15T01:10:02.928Z,-3.20
2018-02-15T01:12:32.111Z,-3.30
2018-02-15T01:15:00.521Z,-3.30
2018-02-15T01:17:28.939Z,-3.30
2018-02-15T01:19:58.247Z,-3.30
2018-02-15T01:22:26.689Z,-3.30
2018-02-15T01:24:55.115Z,-3.30
2018-02-15T01:27:23.536Z,-3.30
2018-02-15T01:29:51.960Z,-3.30
2018-02-15T01:32:20.360Z,-3.30
2018-02-15T01:34:48.770Z,-3.40
2018-02-15T01:37:17.445Z,-3.40
2018-02-15T01:39:46.614Z,-3.40
2018-02-15T01:42:15.047Z,-3.40
2018-02-15T01:44:43.448Z,-3.40
2018-02-15T01:47:11.859Z,-3.40
2018-02-15T01:49:52.137Z,-3.40
2018-02-15T01:52:20.563Z,-3.40
2018-02-15T01:54:48.955Z,-3.40
2018-02-15T01:57:17.363Z,-3.40
2018-02-15T01:59:46.551Z,-3.30
2018-02-15T02:02:15.727Z,-3.40
2018-02-15T02:04:44.165Z,-3.40
2018-02-15T02:07:12.564Z,-3.30
2018-02-15T02:09:40.966Z,-3.40
2018-02-15T02:12:09.384Z,-3.40
2018-02-15T02:14:37.772Z,-3.30
2018-02-15T02:17:06.164Z,-3.30
2018-02-15T02:19:34.567Z,-3.30
2018-02-15T02:22:02.996Z,-3.30
2018-02-15T02:24:31.391Z,-3.30
2018-02-15T02:26:59.787Z,-3.20
2018-02-15T02:29:27.889Z,-3.20
2018-02-15T02:31:57.123Z,-3.20
2018-02-15T02:34:25.524Z,-3.20
2018-02-15T02:36:53.911Z,-3.30
2018-02-15T02:39:22.307Z,-3.20
2018-02-15T02:41:50.717Z,-3.20
2018-02-15T02:44:19.132Z,-3.20
2018-02-15T02:46:47.533Z,-3.20
2018-02-15T02:49:15.952Z,-3.10
2018-02-15T02:51:44.390Z,-3.20
2018-02-15T02:54:12.784Z,-3.10
2018-02-15T02:56:41.970Z,-3.10
2018-02-15T02:59:10.367Z,-3.20
2018-02-15T03:01:39.575Z,-3.20
2018-02-15T03:04:07.989Z,-3.20
2018-02-15T03:06:36.430Z,-3.20
2018-02-15T03:09:04.206Z,-3.20
2018-02-15T03:11:32.597Z,-3.20
2018-02-15T03:14:01.027Z,-3.20
2018-02-15T03:16:30.216Z,-3.20
2018-02-15T03:18:58.615Z,-3.20
2018-02-15T03:21:27.770Z,-3.20
2018-02-15T03:23:56.218Z,-3.20
2018-02-15T03:26:24.626Z,-3.20
2018-02-15T03:28:53.108Z,-3.20
2018-02-15T03:31:21.517Z,-3.20
2018-02-15T03:33:50.734Z,-3.10
2018-02-15T03:36:19.152Z,-3.20
2018-02-15T03:38:47.556Z,-3.20
2018-02-15T03:41:15.957Z,-3.20
2018-02-15T03:43:44.377Z,-3.20
2018-02-15T03:46:12.772Z,-3.20
2018-02-15T03:48:41.180Z,-3.20
2018-02-15T03:51:10.347Z,-3.20
2018-02-15T03:53:38.817Z,-3.20
2018-02-15T03:56:07.223Z,-3.20
2018-02-15T03:58:35.616Z,-3.20
2018-02-15T04:01:04.813Z,-3.20
2018-02-15T04:03:33.994Z,-3.20
2018-02-15T04:06:03.166Z,-3.20
2018-02-15T04:08:31.589Z,-3.20
2018-02-15T04:10:59.998Z,-3.20
2018-02-15T04:13:28.420Z,-3.20
2018-02-15T04:15:56.837Z,-3.20
2018-02-15T04:18:25.264Z,-3.20
2018-02-15T04:20:53.691Z,-3.30
2018-02-15T04:23:22.088Z,-3.30
2018-02-15T04:25:50.491Z,-3.20
2018-02-15T04:28:18.905Z,-3.20
2018-02-15T04:30:48.078Z,-3.20
2018-02-15T04:33:16.497Z,-3.20
2018-02-15T04:35:44.908Z,-3.20
2018-02-15T04:38:13.309Z,-3.20
2018-02-15T04:40:41.703Z,-3.20
2018-02-15T04:43:11.173Z,-3.20
2018-02-15T04:45:39.839Z,-3.20
2018-02-15T04:48:08.252Z,-3.20
2018-02-15T04:50:36.639Z,-3.20
2018-02-15T04:53:05.046Z,-3.20
2018-02-15T04:55:33.449Z,-3.20
2018-02-15T04:58:01.912Z,-3.20
2018-02-15T05:00:30.321Z,-3.20
2018-02-15T05:02:58.726Z,-3.20
2018-02-15T05:05:27.128Z,-3.20
2018-02-15T05:07:56.298Z,-3.10
2018-02-15T05:10:24.709Z,-3.10
2018-02-15T05:12:53.134Z,-3.10
2018-02-15T05:15:21.522Z,-3.10
2018-02-15T05:17:49.928Z,-3.00
2018-02-15T05:20:19.102Z,-3.00
2018-02-15T05:22:47.511Z,-3.10
2018-02-15T05:25:16.690Z,-3.00
2018-02-15T05:27:45.118Z,-3.00
2018-02-15T05:30:13.503Z,-3.00
2018-02-15T05:32:43.028Z,-3.00
2018-02-15T05:35:12.204Z,-3.00
2018-02-15T05:37:41.197Z,-3.00
2018-02-15T05:40:10.303Z,-3.00
2018-02-15T05:42:38.926Z,-3.00
2018-02-15T05:45:08.164Z,-3.00
2018-02-15T05:47:36.572Z,-3.00
2018-02-15T05:50:04.664Z,-3.00
2018-02-15T05:52:33.858Z,-3.00
2018-02-15T05:55:03.035Z,-3.00
2018-02-15T05:57:31.470Z,-3.00
2018-02-15T05:59:59.905Z,-3.10
2018-02-15T06:02:28.311Z,-3.10
2018-02-15T06:04:56.777Z,-3.10
2018-02-15T06:07:25.982Z,-3.00
2018-02-15T06:09:55.198Z,-3.00
2018-02-15T06:12:23.637Z,-3.00
2018-02-15T06:14:52.068Z,-3.00
2018-02-15T06:17:20.508Z,-3.10
2018-02-15T06:19:49.742Z,-3.00
2018-02-15T06:22:18.179Z,-3.10
2018-02-15T06:24:47.381Z,-3.00
2018-02-15T06:27:16.574Z,-2.90
2018-02-15T06:29:45.783Z,-2.90
2018-02-15T06:32:14.252Z,-3.00
2018-02-15T06:34:43.454Z,-2.90
2018-02-15T06:37:12.653Z,-2.80
2018-02-15T06:39:41.869Z,-2.90
2018-02-15T06:42:11.153Z,-2.80
2018-02-15T06:44:40.388Z,-2.80
2018-02-15T06:47:08.916Z,-2.80
2018-02-15T06:49:38.101Z,-2.70
2018-02-15T06:52:06.535Z,-2.70
2018-02-15T06:54:34.980Z,-2.70
2018-02-15T06:57:03.420Z,-2.70
2018-02-15T06:59:31.856Z,-2.70
2018-02-15T07:02:00.323Z,-2.70
2018-02-15T07:04:28.757Z,-2.70
2018-02-15T07:06:57.206Z,-2.70
2018-02-15T07:09:25.655Z,-2.70
2018-02-15T07:11:54.081Z,-2.70
2018-02-15T07:14:22.559Z,-2.70
2018-02-15T07:16:50.994Z,-2.70
2018-02-15T07:19:19.425Z,-2.70
2018-02-15T07:21:47.878Z,-2.70
2018-02-15T07:24:16.310Z,-2.60
2018-02-15T07:26:45.513Z,-2.60
2018-02-15T07:29:14.723Z,-2.60
2018-02-15T07:31:43.194Z,-2.70
2018-02-15T07:34:12.116Z,-2.60
2018-02-15T07:36:40.351Z,-2.60
2018-02-15T07:39:10.484Z,-2.40
2018-02-15T07:41:38.986Z,-2.50
2018-02-15T07:44:07.431Z,-2.40
2018-02-15T07:46:36.638Z,-2.40
2018-02-15T07:49:04.884Z,-2.40
2018-02-15T07:51:33.150Z,-2.50
2018-02-15T07:54:01.396Z,-2.40
2018-02-15T07:56:29.645Z,-2.40
2018-02-15T07:58:57.923Z,-2.40
2018-02-15T08:01:26.369Z,-2.40
2018-02-15T08:03:55.566Z,-2.30
2018-02-15T08:06:24.791Z,-2.30
2018-02-15T08:08:53.231Z,-2.30
2018-02-15T08:11:21.716Z,-2.30
2018-02-15T08:13:50.314Z,-2.30
2018-02-15T08:16:19.499Z,-2.30
2018-02-15T08:18:48.705Z,-2.30
2018-02-15T08:21:17.900Z,-2.30
2018-02-15T08:23:47.107Z,-2.30
2018-02-15T08:26:15.579Z,-2.30
2018-02-15T08:28:44.811Z,-2.30
2018-02-15T08:31:13.267Z,-2.40
2018-02-15T08:33:42.705Z,-2.30
2018-02-15T08:36:11.534Z,-2.40
2018-02-15T08:38:40.780Z,-2.40
2018-02-15T08:41:09.867Z,-2.40
2018-02-15T08:43:38.300Z,-2.40
2018-02-15T08:46:07.504Z,-2.40
2018-02-15T08:48:36.748Z,-2.40
2018-02-15T08:51:05.208Z,-2.40
2018-02-15T08:53:33.645Z,-2.30
2018-02-15T08:56:02.090Z,-2.30
2018-02-15T08:58:30.543Z,-2.30
2018-02-15T09:00:58.973Z,-2.20
2018-02-15T09:03:27.428Z,-2.20
2018-02-15T09:05:55.880Z,-2.10
2018-02-15T09:08:24.304Z,-2.10
2018-02-15T09:10:52.744Z,-2.10
2018-02-15T09:13:21.178Z,-2.00
2018-02-15T09:15:49.632Z,-2.00
2018-02-15T09:18:18.054Z,-2.10
2018-02-15T09:20:46.480Z,-2.00
2018-02-15T09:23:14.943Z,-1.90
2018-02-15T09:25:43.368Z,-1.80
2018-02-15T09:28:12.750Z,-1.80
2018-02-15T09:30:41.776Z,-1.80
2018-02-15T09:33:11.794Z,-1.80
2018-02-15T09:35:41.794Z,-1.80
2018-02-15T09:38:10.229Z,-1.80
2018-02-15T09:40:38.664Z,-1.80
2018-02-15T09:43:07.855Z,-1.70
2018-02-15T09:45:37.062Z,-1.70
2018-02-15T09:48:05.496Z,-1.80
2018-02-15T09:50:33.953Z,-1.60
2018-02-15T09:53:02.394Z,-1.70
2018-02-15T09:55:31.581Z,-1.60
2018-02-15T09:58:00.800Z,-1.60
2018-02-15T10:00:29.247Z,-1.60
2018-02-15T10:02:57.702Z,-1.60
2018-02-15T10:05:26.134Z,-1.60
2018-02-15T10:07:54.579Z,-1.50
2018-02-15T10:10:23.020Z,-1.50
2018-02-15T10:12:51.449Z,-1.60
2018-02-15T10:15:20.674Z,-1.50
2018-02-15T10:17:49.109Z,-1.60
2018-02-15T10:20:17.557Z,-1.50
2018-02-15T10:22:46.021Z,-1.50
2018-02-15T10:25:14.661Z,-1.40
2018-02-15T10:27:43.882Z,-1.40
2018-02-15T10:30:12.330Z,-1.40
2018-02-15T10:32:42.712Z,-1.40
2018-02-15T10:35:11.320Z,-1.30
2018-02-15T10:37:40.715Z,-1.30
2018-02-15T10:40:09.156Z,-1.30
2018-02-15T10:42:38.604Z,-1.20
2018-02-15T10:45:07.070Z,-1.20
2018-02-15T10:47:35.509Z,-1.30
2018-02-15T10:50:04.699Z,-1.20
2018-02-15T10:52:34.817Z,-1.20
2018-02-15T10:55:04.016Z,-1.20
2018-02-15T10:57:33.055Z,-1.10
2018-02-15T11:00:01.489Z,-1.10
2018-02-15T11:02:29.920Z,-1.00
2018-02-15T11:05:03.899Z,-1.00
2018-02-15T11:07:32.338Z,-1.00
2018-02-15T11:10:01.352Z,-0.90
2018-02-15T11:12:29.804Z,-0.90
2018-02-15T11:14:59.211Z,-0.80
2018-02-15T11:17:28.417Z,-0.80
2018-02-15T11:19:57.659Z,-0.80
2018-02-15T11:22:26.085Z,-0.80
2018-02-15T11:24:55.282Z,-0.80
2018-02-15T11:27:24.498Z,-0.90
2018-02-15T11:29:53.684Z,-0.80
2018-02-15T11:32:22.889Z,-0.80
2018-02-15T11:34:51.326Z,-0.80
2018-02-15T11:37:19.780Z,-0.80
2018-02-15T11:39:48.227Z,-0.80
2018-02-15T11:42:17.421Z,-0.80
2018-02-15T11:44:45.868Z,-0.80
2018-02-15T11:47:14.325Z,-0.80
2018-02-15T11:49:42.769Z,-0.80
2018-02-15T11:52:11.652Z,-0.80
2018-02-15T11:54:40.860Z,-0.80
2018-02-15T11:57:09.683Z,-0.80
2018-02-15T11:59:38.149Z,-0.80
2018-02-15T12:02:06.585Z,-0.70
2018-02-15T12:04:35.776Z,-0.70
2018-02-15T12:07:05.003Z,-0.70
2018-02-15T12:09:33.461Z,-0.70
2018-02-15T12:12:02.709Z,-0.60
2018-02-15T12:14:31.146Z,-0.70
2018-02-15T12:17:00.354Z,-0.60
2018-02-15T12:19:28.797Z,-0.60
2018-02-15T12:21:57.234Z,-0.60
2018-02-15T12:24:25.443Z,-0.60
2018-02-15T12:26:53.898Z,-0.60
2018-02-15T12:29:22.329Z,-0.60
2018-02-15T12:31:51.556Z,-0.60
2018-02-15T12:34:20.005Z,-0.60
2018-02-15T12:36:49.201Z,-0.50
2018-02-15T12:39:18.437Z,-0.60
2018-02-15T12:41:46.863Z,-0.60
2018-02-15T12:44:15.291Z,-0.60
2018-02-15T12:46:43.728Z,-0.50
2018-02-15T12:49:12.949Z,-0.50
2018-02-15T12:51:41.418Z,-0.50
2018-02-15T12:54:11.310Z,-0.40
2018-02-15T12:56:40.218Z,-0.40
2018-02-15T12:59:08.673Z,-0.40
2018-02-15T13:01:37.117Z,-0.40
2018-02-15T13:04:05.572Z,-0.40
2018-02-15T13:06:34.014Z,-0.40
2018-02-15T13:09:02.460Z,-0.40
2018-02-15T13:11:30.906Z,-0.40
2018-02-15T13:13:59.377Z,-0.40
2018-02-15T13:16:39.412Z,-0.40
2018-02-15T13:19:19.864Z,-0.30
2018-02-15T13:21:48.309Z,-0.30
2018-02-15T13:24:16.750Z,-0.30
2018-02-15T13:26:45.222Z,-0.30
2018-02-15T13:29:14.430Z,-0.30
2018-02-15T13:31:42.945Z,-0.30
2018-02-15T13:34:11.750Z,-0.30
2018-02-15T13:36:40.676Z,-0.30
2018-02-15T13:39:10.073Z,-0.30
2018-02-15T13:41:39.416Z,-0.20
2018-02-15T13:44:07.866Z,-0.30
2018-02-15T13:46:36.302Z,-0.20
2018-02-15T13:49:04.740Z,-0.20
2018-02-15T13:51:33.197Z,-0.20
2018-02-15T13:54:02.402Z,-0.20
2018-02-15T13:56:30.836Z,-0.20
2018-02-15T13:58:59.297Z,-0.10
2018-02-15T14:01:27.740Z,-0.20
2018-02-15T14:03:56.173Z,-0.10
2018-02-15T14:06:24.632Z,-0.10
2018-02-15T14:08:53.082Z,-0.10
2018-02-15T14:11:21.522Z,-0.10
2018-02-15T14:13:49.788Z,-0.10
2018-02-15T14:16:18.212Z,-0.10
2018-02-15T14:18:46.667Z,-0.10
2018-02-15T14:21:15.870Z,-0.10
2018-02-15T14:23:45.071Z,0.00
2018-02-15T14:26:14.276Z,0.00
2018-02-15T14:28:42.715Z,0.00
2018-02-15T14:31:11.983Z,0.00
2018-02-15T14:33:40.417Z,0.00
2018-02-15T14:36:10.171Z,0.00
2018-02-15T14:38:38.681Z,0.00
2018-02-15T14:41:07.200Z,0.10
2018-02-15T14:43:35.714Z,0.10
2018-02-15T14:46:04.235Z,0.10
2018-02-15T14:48:33.531Z,0.10
2018-02-15T14:51:02.941Z,0.10
2018-02-15T14:53:31.468Z,0.10
2018-02-15T14:56:00.653Z,0.10
2018-02-15T14:58:29.198Z,0.10
2018-02-15T15:03:33.309Z,0.10
2018-02-15T15:06:02.601Z,0.10
2018-02-15T15:08:31.151Z,0.10
2018-02-15T15:11:01.063Z,0.20
2018-02-15T15:13:29.849Z,0.20
2018-02-15T15:15:58.414Z,0.10
2018-02-15T15:18:27.827Z,0.20
2018-02-15T15:20:57.186Z,0.30
2018-02-15T15:23:27.509Z,0.30
2018-02-15T15:25:56.801Z,0.30
2018-02-15T15:28:25.168Z,0.30
2018-02-15T15:30:53.676Z,0.30
2018-02-15T15:33:22.188Z,0.30
2018-02-15T15:35:50.698Z,0.30
2018-02-15T15:38:19.253Z,0.30
2018-02-15T15:40:47.796Z,0.30
2018-02-15T15:43:16.476Z,0.30
2018-02-15T15:45:45.748Z,0.40
2018-02-15T15:48:15.045Z,0.40
2018-02-15T15:50:44.363Z,0.30
2018-02-15T15:53:13.317Z,0.40
2018-02-15T15:55:41.855Z,0.40
2018-02-15T15:58:10.390Z,0.40
2018-02-15T16:00:39.702Z,0.40
2018-02-15T16:03:08.226Z,0.40
2018-02-15T16:05:37.542Z,0.40
2018-02-15T16:08:06.054Z,0.40
2018-02-15T16:10:34.586Z,0.40
2018-02-15T16:13:03.745Z,0.30
2018-02-15T16:15:32.694Z,0.30
2018-02-15T16:18:02.184Z,0.40
2018-02-15T16:20:30.680Z,0.40
2018-02-15T16:22:59.217Z,0.40
2018-02-15T16:25:27.829Z,0.30
2018-02-15T16:27:56.395Z,0.30
2018-02-15T16:30:26.148Z,0.30
2018-02-15T16:32:54.356Z,0.20
2018-02-15T16:35:22.968Z,0.20
2018-02-15T16:37:51.490Z,0.20
2018-02-15T16:40:20.044Z,0.30
2018-02-15T16:42:48.485Z,0.40
2018-02-15T16:45:17.690Z,0.40
2018-02-15T16:47:46.132Z,0.40
2018-02-15T16:50:14.551Z,0.40
2018-02-15T16:52:44.003Z,0.30
2018-02-15T16:55:12.431Z,0.40
2018-02-15T16:57:40.874Z,0.40
2018-02-15T17:00:09.319Z,0.40
2018-02-15T17:02:38.733Z,0.50
2018-02-15T17:05:07.188Z,0.50
2018-02-15T17:07:35.630Z,0.60
2018-02-15T17:10:04.515Z,0.50
2018-02-15T17:12:34.699Z,0.40
2018-02-15T17:15:03.535Z,0.40
2018-02-15T17:17:32.749Z,0.40
2018-02-15T17:20:01.439Z,0.40
2018-02-15T17:22:29.875Z,0.50
2018-02-15T17:24:58.316Z,0.60
2018-02-15T17:27:26.750Z,0.50
2018-02-15T18:45:53.926Z,0.40
2018-02-15T18:48:22.359Z,0.70
2018-02-15T18:50:50.789Z,0.70
2018-02-15T18:53:19.271Z,0.70
2018-02-15T18:55:47.705Z,0.70
2018-02-15T18:58:16.195Z,0.70
2018-02-15T19:00:44.672Z,0.70
2018-02-15T19:03:13.169Z,0.70
2018-02-15T19:05:41.748Z,3.10
2018-02-15T19:08:10.179Z,0.80
2018-02-15T19:10:38.621Z,0.80
2018-02-15T19:13:07.050Z,0.80
2018-02-15T19:15:35.505Z,0.80
2018-02-15T19:18:04.706Z,1.00
2018-02-15T19:20:34.894Z,1.00
2018-02-15T19:23:03.337Z,1.00
2018-02-15T19:25:32.232Z,1.00
2018-02-15T19:28:00.741Z,1.00
2018-02-15T19:30:29.295Z,1.10
2018-02-15T19:32:57.802Z,1.00
2018-02-15T19:35:26.244Z,1.10
2018-02-15T19:37:54.682Z,1.10
2018-02-15T19:40:23.906Z,1.30
2018-02-15T19:42:52.323Z,1.80
2018-02-15T19:45:20.763Z,1.20
2018-02-15T19:47:49.186Z,1.10
2018-02-15T19:50:17.638Z,1.10
2018-02-15T19:52:46.085Z,1.10
2018-02-15T19:55:14.517Z,1.10
2018-02-15T19:57:42.953Z,1.10
2018-02-15T20:00:11.054Z,1.20
2018-02-15T20:02:39.499Z,1.30
2018-02-15T20:05:07.946Z,1.30
2018-02-15T20:07:37.411Z,1.30
2018-02-15T20:10:05.843Z,1.30
2018-02-15T20:12:36.076Z,1.20
2018-02-15T20:15:04.535Z,1.20
2018-02-15T20:17:33.716Z,1.40
2018-02-15T20:20:07.675Z,1.40
2018-02-15T20:22:36.606Z,1.50
2018-02-15T20:25:05.039Z,1.40
2018-02-15T20:27:40.028Z,1.50
2018-02-15T20:30:08.470Z,1.50
2018-02-15T20:32:36.935Z,1.50
2018-02-15T20:35:05.384Z,1.50
2018-02-15T20:37:40.026Z,1.50
2018-02-15T20:40:14.094Z,1.40
2018-02-15T20:42:43.409Z,1.50
2018-02-15T20:45:12.614Z,1.40
2018-02-15T20:47:41.813Z,1.50
2018-02-15T20:50:15.889Z,1.40
2018-02-15T20:55:46.952Z,1.60
2018-02-15T20:58:15.406Z,1.50
2018-02-15T21:00:43.852Z,1.40
2018-02-15T21:03:12.324Z,1.50
2018-02-15T21:05:40.744Z,1.60
2018-02-15T21:08:09.174Z,1.60
2018-02-15T21:10:38.378Z,1.60
2018-02-15T21:13:06.468Z,1.60
2018-02-15T21:15:35.896Z,1.70
2018-02-15T21:18:03.980Z,1.80
2018-02-15T21:20:32.554Z,1.80
2018-02-15T21:23:00.980Z,1.70
2018-02-15T21:25:29.613Z,1.70
2018-02-15T21:27:58.060Z,1.70
2018-02-15T21:30:26.479Z,1.70
2018-02-15T21:32:54.915Z,1.80
2018-02-15T21:35:23.352Z,1.90
2018-02-15T21:37:52.567Z,1.90
2018-02-15T21:40:21.000Z,1.90
2018-02-15T21:42:49.455Z,1.80
2018-02-15T21:45:17.886Z,1.70
2018-02-15T21:47:47.085Z,1.60
2018-02-15T21:50:16.283Z,1.60
2018-02-15T21:52:45.468Z,1.60
2018-02-15T21:55:13.905Z,1.60
2018-02-15T21:57:42.351Z,1.70
2018-02-15T22:00:10.798Z,1.80
2018-02-15T22:02:39.267Z,1.90
2018-02-15T22:05:07.707Z,2.00
2018-02-15T22:07:36.136Z,2.00
2018-02-15T22:10:05.342Z,2.10
2018-02-15T22:12:35.537Z,2.10
2018-02-15T22:15:04.104Z,2.10
2018-02-15T22:17:32.564Z,2.10
2018-02-15T22:20:00.969Z,2.00
2018-02-15T22:22:29.380Z,2.00
2018-02-15T22:24:58.531Z,1.90
2018-02-15T22:27:26.952Z,1.90
2018-02-15T22:29:56.116Z,1.90
2018-02-15T22:32:24.512Z,1.90
2018-02-15T22:34:52.922Z,1.90
2018-02-15T22:37:21.374Z,1.90
2018-02-15T22:39:49.767Z,1.90
2018-02-15T22:42:18.746Z,1.90
2018-02-15T22:44:47.938Z,2.00
2018-02-15T22:47:16.334Z,2.00
2018-02-15T22:49:45.480Z,2.10
2018-02-15T22:52:13.889Z,2.10
2018-02-15T22:54:42.300Z,2.20
2018-02-15T22:57:10.931Z,2.10
2018-02-15T22:59:39.334Z,2.10
2018-02-15T23:02:08.555Z,2.10
2018-02-15T23:04:36.961Z,2.20
2018-02-15T23:07:06.336Z,2.20
2018-02-15T23:09:35.791Z,2.10
2018-02-15T23:12:04.201Z,2.10
2018-02-15T23:14:34.100Z,2.10
2018-02-15T23:17:02.767Z,2.10
2018-02-15T23:19:31.177Z,2.10
2018-02-15T23:22:00.328Z,2.10
2018-02-15T23:24:29.502Z,2.20
2018-02-15T23:26:57.885Z,2.20
2018-02-15T23:29:26.258Z,2.20
2018-02-15T23:31:54.672Z,2.20
2018-02-15T23:34:23.046Z,2.20
2018-02-15T23:36:51.449Z,2.20
2018-02-15T23:39:20.584Z,2.30
2018-02-15T23:41:48.974Z,2.30
2018-02-15T23:44:17.365Z,2.30
2018-02-15T23:46:45.775Z,2.20
2018-02-15T23:49:14.927Z,2.20
2018-02-15T23:51:43.337Z,2.20
2018-02-15T23:54:12.527Z,2.20
2018-02-15T23:56:41.014Z,2.20
2018-02-15T23:59:10.186Z,2.20
